Sunday, October 21, 2018, 6:35 AM EDT
Back to Local

KBTV, Burlington International

Location: South Burlington, VT, United States Lat: 44.467
Local Time: 6:35 AM EDT (10:35 GMT) Lon: -73.15
Time Zone: US/Eastern Elev: 334 ft

Show me the last for .
Show Decoded

2018-10-21 05:54 METAR KBTV 210954Z 32016G22KT 10SM SCT030 OVC036 04/M03 A2979 RMK AO2 SLP090
                 T00391033 =
2018-10-21 04:54 METAR KBTV 210854Z AUTO 33007KT 10SM BKN030 OVC035 04/M03 A2976 RMK AO2 SLP079
                 T00391028 53016 =
2018-10-21 03:54 METAR KBTV 210754Z AUTO 32012KT 10SM OVC030 04/M02 A2974 RMK AO2 SLP071
                 T00441022 =
2018-10-21 03:49 METAR KBTV 210749Z AUTO 33009KT 10SM BKN030 OVC034 04/M02 A2973 RMK AO2 =
2018-10-21 03:30 METAR KBTV 210730Z AUTO 34015KT 10SM OVC029 05/M02 A2972 RMK AO2 T00501017 =
2018-10-21 02:54 METAR KBTV 210654Z AUTO 33017G22KT 10SM SCT070 06/M01 A2971 RMK AO2 SLP063
                 T00561011 =
2018-10-21 01:54 METAR KBTV 210554Z AUTO 35011G17KT 10SM OVC070 07/M01 A2968 RMK AO2 SLP051
                 T00671011 10122 20067 51019 =
2018-10-21 00:54 METAR KBTV 210454Z AUTO 34008G22KT 10SM BKN070 07/M02 A2967 RMK AO2 SLP047
                 T00721022 401720072 =
2018-10-20 23:54 METAR KBTV 210354Z 35008G16KT 10SM BKN050 08/M01 A2965 RMK AO2 SLP042 "LAST"
                 T00781006 =
2018-10-20 22:54 METAR KBTV 210254Z 34012KT 10SM BKN050 09/M02 A2963 RMK AO2 SLP032 T00941017
                 51015 =
2018-10-20 21:54 METAR KBTV 210154Z 35009KT 10SM BKN050 10/M01 A2961 RMK AO2 SLP029 T01001006 =
2018-10-20 20:54 METAR KBTV 210054Z 34010KT 10SM BKN050 OVC075 11/02 A2959 RMK AO2 SLP022
                 T01060022 =
2018-10-20 19:54 METAR KBTV 202354Z 27004KT 10SM SCT070 12/00 A2958 RMK AO2 SLP017 T01220000
                 10167 20117 53020 =
2018-10-20 18:54 METAR KBTV 202254Z 28008KT 10SM SCT060 BKN080 BKN150 13/M01 A2956 RMK AO2 SLP010
                 T01281006 =
2018-10-20 17:54 METAR KBTV 202154Z 28008KT 10SM SCT060 BKN080 BKN150 13/00 A2953 RMK AO2 SLP001
                 T01330000 =
2018-10-20 16:54 METAR KBTV 202054Z 29011KT 10SM FEW075 FEW100 15/M01 A2952 RMK AO2 SLP997
                 T01501006 51002 =
2018-10-20 15:54 METAR KBTV 201954Z 27012G18KT 10SM FEW050 FEW080 16/M01 A2952 RMK AO2 SLP995
                 T01611011 =
2018-10-20 14:54 METAR KBTV 201854Z 26015G23KT 10SM SCT050 16/M02 A2952 RMK AO2 PK WND 25026/1818
                 SLP997 T01611022 =
2018-10-20 13:54 METAR KBTV 201754Z 25012G20KT 10SM FEW050 SCT060 16/M02 A2951 RMK AO2 SLP995
                 T01611022 10172 20117 56005 =
2018-10-20 12:54 METAR KBTV 201654Z 26013G20KT 10SM FEW070 FEW080 SCT120 17/M01 A2952 RMK AO2
                 SLP998 T01671006 =
2018-10-20 11:54 METAR KBTV 201554Z 24014G24KT 210V290 10SM BKN065 BKN080 16/01 A2952 RMK AO2
                 SLP997 T01610011 =
2018-10-20 10:54 METAR KBTV 201454Z 22011G18KT 10SM FEW040 BKN050 BKN060 14/04 A2953 RMK AO2
                 SLP000 T01440044 51010 =
2018-10-20 09:54 METAR KBTV 201354Z 20012G18KT 10SM BKN043 13/04 A2953 RMK AO2 SLP999 VCSH
                 T01280044 =
2018-10-20 08:54 METAR KBTV 201254Z 18012G20KT 10SM BKN046 12/04 A2951 RMK AO2 SLP992 VCSH
                 T01220044 =
2018-10-20 07:54 METAR KBTV 201154Z 19015G22KT 10SM OVC050 12/04 A2950 RMK AO2 SLP990 VCSH
                 T01220044 10122 20117 55005 =
2018-10-20 06:54 METAR KBTV 201054Z 19014G24KT 10SM BKN050 OVC070 12/04 A2949 RMK AO2 SLP987
                 T01170039 =

Support USWX by starting your Amazon purchase here.